Time;durP1;ratioP1;P1;durP2;ratioP2;P2;SDS_P1;SDS_P2;PMS_P1;PMS_P2;Temp;Humidity;BMP_temperature;BMP_pressure;BME280_temperature;BME280_humidity;BME280_pressure;Samples;Min_cycle;Max_cycle;Signal;HPM_P1;HPM_P2
2023/08/18 00:01:38;;;;;;;15.77;9.48;;;;;;;17.26;100.00;101695.94;5090712;28;20039;-68
2023/08/18 00:04:03;;;;;;;14.95;7.85;;;;;;;17.24;100.00;101702.63;5090763;28;20049;-68
2023/08/18 00:06:29;;;;;;;15.98;8.70;;;;;;;17.23;100.00;101700.97;5090761;28;20043;-68
2023/08/18 00:08:55;;;;;;;14.57;8.65;;;;;;;17.18;100.00;101701.63;5090582;28;20482;-68
2023/08/18 00:11:20;;;;;;;18.65;10.13;;;;;;;17.16;100.00;101703.72;5090640;28;20028;-68
2023/08/18 00:13:45;;;;;;;17.88;9.15;;;;;;;17.17;100.00;101708.06;5090527;28;20024;-68
2023/08/18 00:16:11;;;;;;;15.30;8.68;;;;;;;17.16;100.00;101697.50;5090275;28;20124;-68
2023/08/18 00:18:36;;;;;;;15.95;8.82;;;;;;;17.11;100.00;101695.47;5090139;28;20024;-68
2023/08/18 00:21:02;;;;;;;15.23;8.80;;;;;;;17.12;100.00;101699.00;5090279;28;20067;-68
2023/08/18 00:23:27;;;;;;;18.77;9.05;;;;;;;17.09;100.00;101695.69;5090304;28;20035;-68
2023/08/18 00:25:52;;;;;;;15.15;8.30;;;;;;;17.07;100.00;101696.94;5090178;28;20180;-68
2023/08/18 00:28:18;;;;;;;16.45;9.13;;;;;;;17.08;100.00;101695.88;5088939;28;20023;-68
2023/08/18 00:30:43;;;;;;;14.77;7.45;;;;;;;17.06;100.00;101700.69;5090388;28;20067;-68
2023/08/18 00:33:08;;;;;;;19.95;10.18;;;;;;;17.04;100.00;101690.13;5090054;28;20032;-68
2023/08/18 00:35:34;;;;;;;14.45;8.80;;;;;;;17.01;100.00;101685.16;5090191;28;20114;-68
2023/08/18 00:38:00;;;;;;;15.75;10.13;;;;;;;17.01;100.00;101695.13;5089976;28;20028;-68
2023/08/18 00:40:25;;;;;;;15.55;8.52;;;;;;;17.00;100.00;101691.63;5089922;28;20039;-68
2023/08/18 00:42:51;;;;;;;14.05;7.95;;;;;;;16.98;100.00;101692.88;5089990;28;20500;-68
2023/08/18 00:45:16;;;;;;;14.93;8.63;;;;;;;16.98;100.00;101695.56;5089878;28;20058;-68
2023/08/18 00:47:42;;;;;;;19.75;9.15;;;;;;;16.99;100.00;101697.22;5089625;28;20423;-68
2023/08/18 00:50:10;;;;;;;13.23;7.22;;;;;;;16.94;100.00;101694.34;5088612;28;20028;-68
2023/08/18 00:52:37;;;;;;;17.75;9.13;;;;;;;16.93;100.00;101701.63;5087630;28;20061;-68
2023/08/18 00:55:03;;;;;;;14.90;8.32;;;;;;;16.92;100.00;101701.81;5070448;28;20119;-68
2023/08/18 00:57:29;;;;;;;13.45;8.15;;;;;;;16.91;100.00;101694.78;5070380;28;20490;-68
2023/08/18 00:59:56;;;;;;;14.20;8.15;;;;;;;16.90;100.00;101695.81;5089549;28;20007;-68
2023/08/18 01:02:21;;;;;;;15.85;8.05;;;;;;;16.88;100.00;101687.16;5089614;28;20040;-68
2023/08/18 01:04:47;;;;;;;15.60;8.20;;;;;;;16.87;100.00;101678.22;5089725;28;20028;-68
2023/08/18 01:07:13;;;;;;;14.93;8.65;;;;;;;16.86;100.00;101687.34;5089661;28;20065;-68
2023/08/18 01:09:39;;;;;;;15.35;8.02;;;;;;;16.86;100.00;101684.66;5088148;28;20024;-68
2023/08/18 01:12:31;;;;;;;13.95;8.00;;;;;;;16.86;100.00;101679.28;5089404;28;20028;-68
2023/08/18 01:15:05;;;;;;;13.18;7.65;;;;;;;16.81;100.00;101682.59;5070132;28;20430;-68
2023/08/18 01:17:37;;;;;;;16.13;8.43;;;;;;;16.83;100.00;101679.72;5070013;28;20115;-68
2023/08/18 01:20:04;;;;;;;14.68;8.38;;;;;;;16.83;100.00;101679.72;5087752;28;20036;-68
2023/08/18 01:22:32;;;;;;;13.85;8.40;;;;;;;16.81;100.00;101676.41;5089256;28;20507;-68
2023/08/18 01:25:01;;;;;;;18.05;9.02;;;;;;;16.78;100.00;101666.06;5089213;28;20043;-68
2023/08/18 01:27:31;;;;;;;17.27;8.38;;;;;;;16.78;100.00;101666.88;5089170;28;20024;-68
2023/08/18 01:29:56;;;;;;;15.38;8.73;;;;;;;16.76;100.00;101663.53;5088781;28;20031;-68
2023/08/18 01:32:28;;;;;;;16.75;8.98;;;;;;;16.75;100.00;101661.09;5089272;28;20353;-68
2023/08/18 01:34:53;;;;;;;14.85;7.78;;;;;;;16.74;100.00;101662.09;5089099;28;20481;-68
2023/08/18 01:37:20;;;;;;;18.65;8.65;;;;;;;16.72;100.00;101664.22;5088930;28;20023;-68
2023/08/18 01:39:47;;;;;;;13.43;8.00;;;;;;;16.65;100.00;101648.09;5088892;28;20040;-68
2023/08/18 01:42:13;;;;;;;15.20;8.10;;;;;;;16.62;100.00;101646.66;5089103;28;20089;-68
2023/08/18 01:44:39;;;;;;;16.88;8.73;;;;;;;16.67;100.00;101658.66;5088892;28;20034;-68
2023/08/18 01:47:04;;;;;;;16.52;8.50;;;;;;;16.64;100.00;101660.75;5088874;28;21061;-68
2023/08/18 01:49:30;;;;;;;16.23;9.25;;;;;;;16.63;100.00;101656.38;5088947;28;20086;-68
2023/08/18 01:51:55;;;;;;;17.40;9.80;;;;;;;16.61;100.00;101646.84;5088840;28;20075;-68
2023/08/18 01:54:21;;;;;;;16.05;9.10;;;;;;;16.56;100.00;101644.03;5088864;28;20589;-68
2023/08/18 01:56:46;;;;;;;16.17;9.27;;;;;;;16.55;100.00;101645.88;5088929;28;20024;-68
2023/08/18 01:59:13;;;;;;;19.00;10.80;;;;;;;16.54;100.00;101644.22;5088776;28;20036;-68
2023/08/18 02:01:39;;;;;;;17.10;9.10;;;;;;;16.54;100.00;101644.22;5088808;28;20028;-69
2023/08/18 02:04:04;;;;;;;15.95;9.35;;;;;;;16.54;100.00;101643.41;5088956;28;20058;-68
2023/08/18 02:06:31;;;;;;;15.70;8.27;;;;;;;16.56;100.00;101638.63;5089249;28;20031;-68
2023/08/18 02:08:57;;;;;;;17.23;9.18;;;;;;;16.54;100.00;101635.31;5090811;28;20047;-68
2023/08/18 02:11:22;;;;;;;13.85;8.05;;;;;;;16.52;100.00;101629.31;5088917;28;20016;-68
2023/08/18 02:13:47;;;;;;;16.27;9.50;;;;;;;16.51;100.00;101636.59;5088533;28;20115;-68
2023/08/18 02:16:13;;;;;;;16.55;7.95;;;;;;;16.50;100.00;101642.16;5088784;28;20480;-68
2023/08/18 02:18:39;;;;;;;17.55;9.00;;;;;;;16.49;100.00;101640.53;5088555;28;20067;-68
2023/08/18 02:21:04;;;;;;;17.30;8.48;;;;;;;16.47;100.00;101639.91;5088736;28;20412;-68
2023/08/18 02:23:30;;;;;;;16.17;9.02;;;;;;;16.45;100.00;101634.75;5088639;28;20426;-68
2023/08/18 02:26:00;;;;;;;17.92;9.77;;;;;;;16.46;100.00;101640.97;5088721;28;20487;-68
2023/08/18 02:28:25;;;;;;;16.02;8.75;;;;;;;16.42;100.00;101637.88;5088679;28;20539;-68
2023/08/18 02:31:04;;;;;;;16.58;9.18;;;;;;;16.41;100.00;101633.53;5088626;28;20031;-68
2023/08/18 02:33:31;;;;;;;15.05;8.93;;;;;;;16.42;100.00;101636.00;5088511;28;20028;-68
2023/08/18 02:35:58;;;;;;;17.23;8.75;;;;;;;16.43;100.00;101642.22;5088464;28;20032;-69
2023/08/18 02:38:27;;;;;;;18.92;10.15;;;;;;;16.38;100.00;101626.72;5088439;28;20036;-68
2023/08/18 02:40:53;;;;;;;17.70;10.88;;;;;;;16.37;100.00;101624.22;5088439;28;20363;-68
2023/08/18 02:43:19;;;;;;;17.10;9.32;;;;;;;16.31;100.00;101625.91;5090086;28;20036;-68
2023/08/18 02:45:45;;;;;;;17.23;10.45;;;;;;;16.32;100.00;101629.44;5092153;28;20103;-68
2023/08/18 02:48:11;;;;;;;15.88;8.93;;;;;;;16.31;100.00;101623.22;5091919;28;20052;-68
2023/08/18 02:50:37;;;;;;;16.85;9.27;;;;;;;16.33;100.00;101625.72;5092144;28;20314;-68
2023/08/18 02:53:03;;;;;;;16.00;9.75;;;;;;;16.23;100.00;101607.34;5092047;28;20035;-69
2023/08/18 02:55:29;;;;;;;14.77;8.13;;;;;;;16.32;100.00;101621.34;5091942;28;20032;-68
2023/08/18 02:57:54;;;;;;;15.70;8.95;;;;;;;16.34;100.00;101625.47;5091873;28;20036;-68
2023/08/18 03:00:20;;;;;;;15.75;9.10;;;;;;;16.35;100.00;101626.34;5092026;28;20036;-68
2023/08/18 03:02:45;;;;;;;16.30;8.73;;;;;;;16.34;100.00;101630.88;5091914;28;20037;-68
2023/08/18 03:05:11;;;;;;;17.40;9.98;;;;;;;16.30;100.00;101618.91;5091542;28;20028;-68
2023/08/18 03:07:36;;;;;;;16.80;9.15;;;;;;;16.32;100.00;101621.34;5091770;28;20047;-68
2023/08/18 03:10:02;;;;;;;18.42;10.05;;;;;;;16.30;100.00;101620.78;5091690;28;20024;-68
2023/08/18 03:12:27;;;;;;;18.05;11.15;;;;;;;16.25;100.00;101624.09;5091484;28;20119;-68
2023/08/18 03:14:53;;;;;;;15.68;8.40;;;;;;;16.26;100.00;101614.16;5091562;28;20483;-68
2023/08/18 03:17:18;;;;;;;17.55;8.20;;;;;;;16.26;100.00;101619.53;5091697;28;20035;-68
2023/08/18 03:19:43;;;;;;;15.93;9.35;;;;;;;16.24;100.00;101610.84;5091433;28;20038;-68
2023/08/18 03:22:09;;;;;;;16.75;9.55;;;;;;;16.23;100.00;101618.09;5090230;28;20089;-68
2023/08/18 03:24:34;;;;;;;16.90;8.88;;;;;;;16.20;100.00;101622.03;5091516;28;20125;-69
2023/08/18 03:26:59;;;;;;;16.02;9.27;;;;;;;16.24;100.00;101627.00;5091245;28;20386;-68
2023/08/18 03:29:25;;;;;;;17.17;9.38;;;;;;;16.27;100.00;101631.94;5091428;28;20027;-68
2023/08/18 03:31:50;;;;;;;17.25;9.60;;;;;;;16.26;100.00;101619.53;5071976;28;20135;-68
2023/08/18 03:34:15;;;;;;;17.98;9.77;;;;;;;16.27;100.00;101626.56;5071922;28;20483;-68
2023/08/18 03:36:41;;;;;;;15.77;8.55;;;;;;;16.26;100.00;101617.66;5071935;28;20498;-68
2023/08/18 03:39:06;;;;;;;18.17;9.75;;;;;;;16.25;100.00;101624.09;5071590;28;20024;-69
2023/08/18 03:41:31;;;;;;;17.88;9.60;;;;;;;16.25;100.00;101617.91;5071803;28;20029;-68
2023/08/18 03:43:58;;;;;;;16.35;8.68;;;;;;;16.24;100.00;101611.66;5071875;28;20043;-68
2023/08/18 03:46:25;;;;;;;18.25;10.13;;;;;;;16.19;100.00;101604.25;5090985;28;20059;-68
2023/08/18 03:48:51;;;;;;;16.23;9.15;;;;;;;16.21;100.00;101612.91;5090928;28;20052;-68
2023/08/18 03:51:16;;;;;;;18.77;9.57;;;;;;;16.19;100.00;101609.66;5090814;28;20088;-68
2023/08/18 03:53:42;;;;;;;19.45;11.23;;;;;;;16.17;100.00;101610.91;5090455;28;20032;-68
2023/08/18 03:56:07;;;;;;;20.85;11.10;;;;;;;16.14;100.00;101609.47;5090948;28;20138;-68
2023/08/18 03:58:33;;;;;;;19.25;10.23;;;;;;;16.16;100.00;101617.31;5090657;28;20152;-68
2023/08/18 04:01:07;;;;;;;17.90;9.82;;;;;;;16.17;100.00;101610.91;5090866;28;20064;-69
2023/08/18 04:03:35;;;;;;;17.38;9.90;;;;;;;16.16;100.00;101603.84;5090578;28;20035;-68
2023/08/18 04:06:01;;;;;;;18.83;10.05;;;;;;;16.16;100.00;101612.75;5090683;28;20103;-68
2023/08/18 04:08:27;;;;;;;22.05;11.35;;;;;;;16.17;100.00;101609.03;5090550;28;20031;-68
2023/08/18 04:10:52;;;;;;;18.17;10.65;;;;;;;16.16;100.00;101610.03;5090776;28;20024;-68
2023/08/18 04:13:17;;;;;;;18.50;9.85;;;;;;;16.18;100.00;101620.59;5090525;28;20032;-68
2023/08/18 04:15:43;;;;;;;18.85;10.02;;;;;;;16.17;100.00;101619.78;5090337;28;20101;-68
2023/08/18 04:18:08;;;;;;;17.98;9.65;;;;;;;16.15;100.00;101619.16;5090401;28;20063;-68
2023/08/18 04:20:35;;;;;;;19.27;9.05;;;;;;;16.16;100.00;101609.22;5090377;28;20515;-68
2023/08/18 04:23:00;;;;;;;18.00;9.43;;;;;;;16.15;100.00;101619.16;5090241;28;20698;-68
2023/08/18 04:25:26;;;;;;;20.42;10.15;;;;;;;16.15;100.00;101608.41;5090291;28;20027;-68
2023/08/18 04:27:51;;;;;;;20.13;10.15;;;;;;;16.14;100.00;101609.47;5090217;28;20439;-68
2023/08/18 04:30:17;;;;;;;17.40;10.43;;;;;;;16.13;100.00;101620.44;5090109;28;20042;-68
2023/08/18 04:32:42;;;;;;;19.30;10.27;;;;;;;16.16;100.00;101617.31;5090253;28;20028;-68
2023/08/18 04:35:08;;;;;;;20.17;10.70;;;;;;;16.15;100.00;101616.47;5090129;28;20420;-69
2023/08/18 04:37:33;;;;;;;19.85;9.93;;;;;;;16.14;100.00;101605.94;5089229;28;20031;-68
2023/08/18 04:39:59;;;;;;;19.30;9.85;;;;;;;16.12;100.00;101608.84;5090004;28;20035;-68
2023/08/18 04:42:24;;;;;;;21.42;10.88;;;;;;;16.15;100.00;101616.47;5089044;28;20047;-68
2023/08/18 04:44:50;;;;;;;17.35;8.95;;;;;;;16.11;100.00;101600.97;5089141;28;20054;-68
2023/08/18 04:47:16;;;;;;;20.65;10.85;;;;;;;16.13;100.00;101597.03;5069589;28;20037;-68
2023/08/18 04:49:41;;;;;;;23.20;10.15;;;;;;;16.14;100.00;101597.88;5070181;28;20032;-68
2023/08/18 04:52:07;;;;;;;22.70;11.35;;;;;;;16.13;100.00;101599.72;5070157;28;20476;-68
2023/08/18 04:54:33;;;;;;;24.63;11.13;;;;;;;16.14;100.00;101609.47;5070309;28;20038;-68
2023/08/18 04:57:03;;;;;;;20.45;10.65;;;;;;;16.17;100.00;101600.94;5070114;28;20386;-68
2023/08/18 04:59:29;;;;;;;22.92;10.93;;;;;;;16.15;100.00;101602.22;5069751;28;20033;-68
2023/08/18 05:01:54;;;;;;;21.83;11.68;;;;;;;16.18;100.00;101610.66;5088722;28;20097;-68
2023/08/18 05:04:20;;;;;;;20.05;9.95;;;;;;;16.18;100.00;101602.59;5089460;28;20105;-68
2023/08/18 05:06:45;;;;;;;24.27;11.85;;;;;;;16.19;100.00;101598.88;5088649;28;20425;-69
2023/08/18 05:09:10;;;;;;;20.55;11.38;;;;;;;16.24;100.00;101605.47;5089498;28;20016;-69
2023/08/18 05:11:36;;;;;;;21.63;9.85;;;;;;;16.27;100.00;101613.94;5089507;28;20391;-68
2023/08/18 05:14:01;;;;;;;21.70;10.55;;;;;;;16.33;100.00;101618.47;5089410;28;20023;-68
2023/08/18 05:16:27;;;;;;;22.73;10.80;;;;;;;16.34;100.00;101612.03;5089311;28;20020;-68
2023/08/18 05:18:52;;;;;;;21.83;11.50;;;;;;;16.35;100.00;101607.50;5089208;28;20448;-68
2023/08/18 05:21:17;;;;;;;20.52;12.02;;;;;;;16.36;100.00;101618.03;5087793;28;20036;-68
2023/08/18 05:23:43;;;;;;;22.58;12.73;;;;;;;16.34;100.00;101609.31;5089319;28;20040;-68
2023/08/18 05:26:09;;;;;;;20.75;11.18;;;;;;;16.33;100.00;101602.31;5089203;28;20548;-68
2023/08/18 05:28:34;;;;;;;24.95;13.65;;;;;;;16.29;100.00;101603.78;5089069;28;20036;-68
2023/08/18 05:31:00;;;;;;;24.05;12.55;;;;;;;16.29;100.00;101608.34;5088962;28;20055;-68
2023/08/18 05:33:25;;;;;;;24.25;12.55;;;;;;;16.28;100.00;101604.81;5087933;28;20035;-68
2023/08/18 05:35:50;;;;;;;23.27;11.40;;;;;;;16.30;100.00;101607.31;5089189;28;20028;-68
2023/08/18 05:38:16;;;;;;;23.02;12.57;;;;;;;16.31;100.00;101608.94;5089021;28;20028;-68
2023/08/18 05:40:48;;;;;;;22.42;11.90;;;;;;;16.30;100.00;101604.63;5089091;28;20475;-68
2023/08/18 05:43:15;;;;;;;24.02;11.73;;;;;;;16.30;100.00;101599.22;5089023;28;20077;-68
2023/08/18 05:45:42;;;;;;;21.98;11.27;;;;;;;16.31;100.00;101595.50;5087560;28;20152;-68
2023/08/18 05:48:08;;;;;;;22.30;12.50;;;;;;;16.32;100.00;101605.19;5088837;28;20384;-68
2023/08/18 05:50:34;;;;;;;22.30;11.07;;;;;;;16.31;100.00;101593.63;5088873;28;20040;-68
2023/08/18 05:53:02;;;;;;;23.63;12.30;;;;;;;16.34;100.00;101595.06;5088858;28;20410;-68
2023/08/18 05:55:27;;;;;;;20.83;11.25;;;;;;;16.34;100.00;101590.47;5088787;28;20073;-68
2023/08/18 05:57:54;;;;;;;20.38;11.48;;;;;;;16.34;100.00;101589.66;5088730;28;20505;-68
2023/08/18 06:00:20;;;;;;;25.08;13.27;;;;;;;16.37;100.00;101594.63;5088668;28;20035;-68
2023/08/18 06:02:45;;;;;;;23.60;12.80;;;;;;;16.39;100.00;101603.31;5086403;28;20043;-68
2023/08/18 06:05:11;;;;;;;22.17;12.90;;;;;;;16.38;100.00;101596.28;5076816;28;20028;-68
2023/08/18 06:07:37;;;;;;;19.40;9.93;;;;;;;16.37;100.00;101592.78;5088570;28;20042;-68
2023/08/18 06:10:03;;;;;;;21.42;12.13;;;;;;;16.37;100.00;101590.06;5088419;28;20103;-68
2023/08/18 06:12:28;;;;;;;23.50;11.48;;;;;;;16.36;100.00;101579.50;5088849;28;20386;-68
2023/08/18 06:14:54;;;;;;;26.15;12.90;;;;;;;16.36;100.00;101588.41;5077381;28;20032;-68
2023/08/18 06:17:19;;;;;;;24.70;13.05;;;;;;;16.29;100.00;101584.09;5090434;28;20473;-68
2023/08/18 06:19:44;;;;;;;22.23;11.93;;;;;;;16.33;100.00;101582.66;5092523;28;20069;-68
2023/08/18 06:22:10;;;;;;;20.67;11.35;;;;;;;16.33;100.00;101594.22;5073264;28;20032;-68
2023/08/18 06:24:35;;;;;;;24.33;13.55;;;;;;;16.33;100.00;101590.72;5089696;28;20055;-68
2023/08/18 06:27:00;;;;;;;23.35;11.63;;;;;;;16.36;100.00;101598.34;5092384;28;20028;-68
2023/08/18 06:29:26;;;;;;;23.98;13.50;;;;;;;16.38;100.00;101601.66;5092451;28;20024;-68
2023/08/18 06:31:51;;;;;;;18.20;9.50;;;;;;;16.41;100.00;101606.63;5092557;28;20059;-69
2023/08/18 06:34:16;;;;;;;23.83;11.80;;;;;;;16.43;100.00;101609.91;5092192;28;20386;-69
2023/08/18 06:36:42;;;;;;;22.02;11.13;;;;;;;16.48;100.00;101598.47;5092268;28;20024;-68
2023/08/18 06:39:08;;;;;;;22.42;11.05;;;;;;;16.51;100.00;101596.19;5092143;28;20059;-67
2023/08/18 06:41:37;;;;;;;22.70;10.13;;;;;;;16.54;100.00;101593.06;5092302;28;20056;-67
2023/08/18 06:44:03;;;;;;;23.05;12.77;;;;;;;16.55;100.00;101585.78;5092193;28;20031;-67
2023/08/18 06:46:28;;;;;;;23.60;14.55;;;;;;;16.59;100.00;101595.94;5092522;28;20059;-67
2023/08/18 06:48:54;;;;;;;21.33;11.80;;;;;;;16.62;100.00;101589.28;5089941;28;20570;-67
2023/08/18 06:51:19;;;;;;;25.10;12.70;;;;;;;16.61;100.00;101590.31;5090869;28;20039;-67
2023/08/18 06:53:44;;;;;;;21.75;12.38;;;;;;;16.62;100.00;101586.59;5091387;28;20780;-67
2023/08/18 06:56:10;;;;;;;23.10;11.50;;;;;;;16.68;100.00;101591.09;5092034;28;20059;-67
2023/08/18 06:58:35;;;;;;;22.58;11.32;;;;;;;16.71;100.00;101584.44;5091709;28;20532;-67
2023/08/18 07:01:01;;;;;;;23.13;11.95;;;;;;;16.74;100.00;101592.06;5091449;28;20060;-67
2023/08/18 07:03:26;;;;;;;24.35;12.85;;;;;;;16.75;100.00;101589.16;5091400;28;20037;-67
2023/08/18 07:05:51;;;;;;;24.40;12.68;;;;;;;16.74;100.00;101590.22;5091560;28;20063;-67
2023/08/18 07:08:17;;;;;;;24.90;12.75;;;;;;;16.72;100.00;101586.09;5091368;28;20052;-67
2023/08/18 07:10:43;;;;;;;26.05;13.75;;;;;;;16.68;100.00;101579.50;5091644;28;20039;-67
2023/08/18 07:13:08;;;;;;;21.52;10.45;;;;;;;16.68;100.00;101580.31;5091337;28;20024;-67
2023/08/18 07:15:34;;;;;;;21.63;11.85;;;;;;;16.66;100.00;101579.69;5072548;28;20546;-67
2023/08/18 07:17:59;;;;;;;22.67;12.05;;;;;;;16.66;100.00;101571.63;5071977;28;20035;-67
2023/08/18 07:20:24;;;;;;;21.92;11.60;;;;;;;16.69;100.00;101581.97;5070956;28;21407;-68
2023/08/18 07:22:50;;;;;;;22.02;11.60;;;;;;;16.69;100.00;101573.91;5074505;28;20038;-68
2023/08/18 07:25:15;;;;;;;25.38;14.85;;;;;;;16.70;100.00;101580.09;5073273;28;20059;-66
2023/08/18 07:27:40;;;;;;;24.75;13.10;;;;;;;16.65;100.00;101583.44;5072425;28;20522;-67
2023/08/18 07:30:06;;;;;;;20.73;11.48;;;;;;;16.68;100.00;101587.56;5074225;28;20032;-67
2023/08/18 07:32:32;;;;;;;25.02;13.35;;;;;;;16.69;100.00;101589.22;5074351;28;21263;-67
2023/08/18 07:34:57;;;;;;;24.63;12.48;;;;;;;16.71;100.00;101581.75;5075059;28;20056;-67
2023/08/18 07:37:23;;;;;;;26.08;13.18;;;;;;;16.77;100.00;101583.56;5073824;28;20040;-66
2023/08/18 07:39:49;;;;;;;26.55;13.88;;;;;;;16.79;100.00;101587.72;5074178;28;20032;-66
2023/08/18 07:42:14;;;;;;;22.73;12.25;;;;;;;16.84;100.00;101578.97;5075322;28;20016;-66
2023/08/18 07:44:39;;;;;;;23.65;12.55;;;;;;;16.85;100.00;101586.84;5074845;28;20391;-67
2023/08/18 07:47:05;;;;;;;25.52;13.68;;;;;;;16.84;100.00;101584.34;5073787;28;20135;-66
2023/08/18 07:49:30;;;;;;;22.65;12.40;;;;;;;16.86;100.00;101585.78;5074426;28;20159;-68
2023/08/18 07:51:56;;;;;;;24.17;12.05;;;;;;;16.88;100.00;101579.38;5074898;28;20604;-67
2023/08/18 07:54:23;;;;;;;26.38;13.50;;;;;;;16.89;100.00;101592.59;5073493;28;20028;-67
2023/08/18 07:56:48;;;;;;;23.70;12.75;;;;;;;16.94;100.00;101589.25;5074445;28;20024;-66
2023/08/18 07:59:14;;;;;;;27.73;14.75;;;;;;;16.98;100.00;101583.22;5073265;28;20020;-67
2023/08/18 08:01:40;;;;;;;28.55;14.48;;;;;;;17.04;100.00;101590.41;5073119;28;20147;-67
2023/08/18 08:04:05;;;;;;;25.45;13.32;;;;;;;17.08;100.00;101597.00;5075859;28;20090;-66
2023/08/18 08:06:30;;;;;;;24.88;12.77;;;;;;;17.06;100.00;101599.09;5073544;28;20024;-66
2023/08/18 08:08:56;;;;;;;26.33;13.20;;;;;;;17.07;100.00;101597.22;5073875;28;20085;-67
2023/08/18 08:11:21;;;;;;;25.50;13.13;;;;;;;17.06;100.00;101606.38;5074296;28;20024;-69
2023/08/18 08:13:46;;;;;;;27.05;13.75;;;;;;;17.03;100.00;101607.63;5074478;28;20038;-69
2023/08/18 08:16:12;;;;;;;25.42;13.15;;;;;;;17.05;100.00;101607.38;5072699;28;20186;-68
2023/08/18 08:18:37;;;;;;;25.25;13.10;;;;;;;17.07;100.00;101610.69;5074215;28;20029;-69
2023/08/18 08:21:03;;;;;;;27.02;15.07;;;;;;;17.08;100.00;101604.25;5072205;28;20057;-69
2023/08/18 08:23:28;;;;;;;25.83;13.65;;;;;;;17.05;100.00;101604.69;5074506;28;20032;-68
2023/08/18 08:25:54;;;;;;;23.23;13.60;;;;;;;17.07;100.00;101606.13;5073359;28;20035;-68
2023/08/18 08:28:19;;;;;;;23.55;12.57;;;;;;;17.11;100.00;101608.38;5073721;28;20094;-67
2023/08/18 08:30:44;;;;;;;25.17;13.73;;;;;;;17.08;100.00;101601.56;5072685;28;20033;-66
2023/08/18 08:33:11;;;;;;;28.33;15.80;;;;;;;17.10;100.00;101610.25;5073756;28;20459;-66
2023/08/18 08:35:37;;;;;;;26.10;14.20;;;;;;;17.11;100.00;101602.97;5073220;28;20069;-67
2023/08/18 08:38:03;;;;;;;26.30;13.30;;;;;;;17.13;100.00;101593.63;5072532;28;20047;-67
2023/08/18 08:40:28;;;;;;;26.00;14.13;;;;;;;17.20;100.00;101605.19;5074042;28;20028;-67
2023/08/18 08:42:56;;;;;;;31.25;15.10;;;;;;;17.21;100.00;101600.59;5072282;28;20094;-67
2023/08/18 08:45:22;;;;;;;27.98;15.32;;;;;;;17.29;100.00;101611.94;5072638;28;20032;-67
2023/08/18 08:47:48;;;;;;;29.25;15.85;;;;;;;17.35;100.00;101621.00;5072976;28;20154;-68
2023/08/18 08:50:16;;;;;;;26.35;14.07;;;;;;;17.31;100.00;101614.41;5073010;28;20446;-67
2023/08/18 08:52:42;;;;;;;29.25;15.93;;;;;;;17.37;100.00;101620.78;5072915;28;20028;-66
2023/08/18 08:55:08;;;;;;;29.17;15.88;;;;;;;17.38;100.00;101625.94;5074495;28;20110;-67
2023/08/18 08:57:33;;;;;;;28.50;16.90;;;;;;;17.37;100.00;101618.91;5073446;28;20099;-67
2023/08/18 09:00:00;;;;;;;26.08;13.80;;;;;;;17.39;100.00;101622.19;5072725;28;20043;-68
2023/08/18 09:02:25;;;;;;;29.15;17.02;;;;;;;17.44;100.00;101619.66;5073631;28;20036;-67
2023/08/18 09:04:51;;;;;;;26.92;14.85;;;;;;;17.44;100.00;101614.25;5073264;28;20057;-66
2023/08/18 09:07:16;;;;;;;31.15;16.88;;;;;;;17.49;100.00;101609.03;5072068;28;20028;-68
2023/08/18 09:09:42;;;;;;;29.00;15.60;;;;;;;17.53;100.00;101606.72;5073635;28;20048;-68
2023/08/18 09:12:08;;;;;;;29.63;17.02;;;;;;;17.66;100.00;101625.47;5072442;28;20119;-68
2023/08/18 09:14:35;;;;;;;27.50;15.45;;;;;;;17.71;100.00;101624.75;5071044;28;20032;-69
2023/08/18 09:17:04;;;;;;;32.08;18.88;;;;;;;17.74;100.00;101632.44;5069845;28;20028;-69
2023/08/18 09:19:29;;;;;;;28.83;18.40;;;;;;;17.74;100.00;101627.84;5068812;28;20024;-69
2023/08/18 09:22:00;;;;;;;31.05;16.90;;;;;;;17.70;100.00;101626.63;5068895;28;20028;-69
2023/08/18 09:24:26;;;;;;;27.90;15.32;;;;;;;17.77;100.00;101626.56;5069692;28;20052;-69
2023/08/18 09:26:52;;;;;;;28.65;17.30;;;;;;;17.78;100.00;101628.22;5069772;28;20024;-69
2023/08/18 09:29:17;;;;;;;30.27;17.55;;;;;;;17.82;100.00;101620.53;5069683;28;20424;-69
2023/08/18 09:31:46;;;;;;;31.27;16.75;;;;;;;17.90;100.00;101621.03;5069963;28;20037;-69
2023/08/18 09:34:21;;;;;;;35.60;19.52;;;;;;;17.91;100.00;101619.16;5069615;28;20033;-69
2023/08/18 09:36:54;;;;;;;27.90;15.55;;;;;;;17.99;100.00;101616.16;5069714;28;20102;-69
2023/08/18 09:39:20;;;;;;;28.25;16.20;;;;;;;17.99;100.00;101615.34;5068262;28;20028;-68
2023/08/18 09:41:53;;;;;;;31.35;16.63;;;;;;;18.07;100.00;101605.03;5069683;28;20580;-69
2023/08/18 09:44:19;;;;;;;28.52;16.55;;;;;;;18.19;100.00;101607.81;5088547;28;20514;-69
2023/08/18 09:46:55;;;;;;;24.17;13.50;;;;;;;18.32;100.00;101604.91;5087563;28;20042;-69
2023/08/18 09:49:22;;;;;;;22.02;12.45;;;;;;;18.42;100.00;101595.41;5088527;28;20052;-69
2023/08/18 09:52:04;;;;;;;24.08;13.07;;;;;;;18.58;100.00;101594.78;5088375;28;20036;-69
2023/08/18 09:54:31;;;;;;;24.27;13.45;;;;;;;18.66;100.00;101585.50;5088767;28;20020;-69
2023/08/18 09:57:02;;;;;;;20.98;12.25;;;;;;;18.77;100.00;101590.94;5088977;28;20020;-69
2023/08/18 09:59:58;;;;;;;22.83;12.35;;;;;;;18.98;100.00;101591.44;5088691;28;20547;-69
2023/08/18 10:02:36;;;;;;;21.88;12.25;;;;;;;18.94;100.00;101596.50;5069060;28;20048;-69
2023/08/18 10:05:04;;;;;;;23.45;12.25;;;;;;;18.95;100.00;101598.13;5088441;28;20028;-69
2023/08/18 10:07:30;;;;;;;22.52;12.15;;;;;;;18.93;100.00;101600.25;5088592;28;20020;-69
2023/08/18 10:09:56;;;;;;;22.85;13.18;;;;;;;18.92;100.00;101595.91;5088540;28;20119;-69
2023/08/18 10:12:22;;;;;;;23.02;13.38;;;;;;;18.92;100.00;101595.91;5088561;28;20113;-69
2023/08/18 10:14:51;;;;;;;21.73;11.95;;;;;;;18.99;100.00;101590.38;5088636;28;20399;-69
2023/08/18 10:17:23;;;;;;;21.25;12.43;;;;;;;19.08;100.00;101588.16;5087169;28;20039;-69
2023/08/18 10:19:58;;;;;;;22.33;13.07;;;;;;;19.17;100.00;101579.44;5088569;28;20475;-69
2023/08/18 10:22:26;;;;;;;21.15;12.68;;;;;;;19.16;100.00;101574.28;5087309;28;20388;-69
2023/08/18 10:24:52;;;;;;;20.73;12.18;;;;;;;19.19;100.00;101574.63;5088528;28;20024;-69
2023/08/18 10:27:26;;;;;;;22.17;12.73;;;;;;;19.31;100.00;101577.34;5088380;28;20036;-69
2023/08/18 10:30:14;;;;;;;24.63;14.88;;;;;;;19.35;100.00;101581.19;5088386;28;20035;-69
2023/08/18 10:32:41;;;;;;;24.73;14.85;;;;;;;19.38;100.00;101579.91;5068190;28;20131;-69
2023/08/18 10:35:23;;;;;;;23.17;13.65;;;;;;;19.47;100.00;101571.19;5079984;28;20917;-69
2023/08/18 10:37:54;;;;;;;23.45;14.88;;;;;;;19.53;100.00;101565.88;5088536;28;20028;-69
2023/08/18 10:40:34;;;;;;;22.45;14.60;;;;;;;19.66;100.00;101569.16;5088331;28;20062;-69
2023/08/18 10:43:13;;;;;;;25.60;14.65;;;;;;;19.81;100.00;101555.13;5068792;28;20467;-69
2023/08/18 10:45:40;;;;;;;24.58;14.30;;;;;;;19.84;100.00;101551.94;5076194;28;20051;-68
2023/08/18 10:48:07;;;;;;;25.52;15.15;;;;;;;19.91;100.00;101565.31;5073082;28;20491;-66
2023/08/18 10:50:38;;;;;;;20.20;12.30;;;;;;;20.02;100.00;101552.81;5067844;28;20028;-66
2023/08/18 10:53:04;;;;;;;23.10;13.43;;;;;;;20.18;100.00;101549.31;5068072;28;20494;-67
2023/08/18 10:55:30;;;;;;;21.98;13.02;;;;;;;20.16;100.00;101546.00;5068305;28;20029;-67
2023/08/18 10:57:56;;;;;;;23.60;13.52;;;;;;;20.25;100.00;101546.44;5068703;28;20028;-67
2023/08/18 11:00:22;;;;;;;20.98;13.05;;;;;;;20.42;100.00;101541.84;5068662;28;20537;-67
2023/08/18 11:02:49;;;;;;;22.00;12.95;;;;;;;20.54;100.00;101542.63;5068498;28;20402;-67